Time;durP1;ratioP1;P1;durP2;ratioP2;P2;SDS_P1;SDS_P2;PMS_P1;PMS_P2;Temp;Humidity;BMP_temperature;BMP_pressure;BME280_temperature;BME280_humidity;BME280_pressure;Samples;Min_cycle;Max_cycle;Signal;HPM_P1;HPM_P2
2022/08/26 00:01:09;;;;;;;1999.90;999.90;;;21.60;99.90;;;;;;5051307;28;20446;-71
2022/08/26 00:03:38;;;;;;;1999.90;999.90;;;21.50;99.90;;;;;;5053126;28;20503;-73
2022/08/26 00:06:05;;;;;;;1999.90;999.90;;;21.50;99.90;;;;;;5049744;22;20550;-72
2022/08/26 00:08:31;;;;;;;1999.90;999.90;;;21.50;99.90;;;;;;5030327;28;20963;-71
2022/08/26 00:10:58;;;;;;;1999.90;999.90;;;21.60;99.90;;;;;;5032440;28;20447;-71
2022/08/26 00:13:25;;;;;;;1999.90;999.90;;;21.50;99.90;;;;;;5032160;28;20451;-72
2022/08/26 00:15:52;;;;;;;1999.90;999.90;;;21.50;99.90;;;;;;5032285;28;20467;-71
2022/08/26 00:18:19;;;;;;;1999.90;999.90;;;21.50;99.90;;;;;;5031219;28;20950;-71
2022/08/26 00:20:47;;;;;;;1999.90;999.90;;;21.50;99.90;;;;;;5031807;28;20451;-71
2022/08/26 00:23:14;;;;;;;1999.90;999.90;;;21.50;99.90;;;;;;5032152;28;20451;-71
2022/08/26 00:25:41;;;;;;;1999.90;999.90;;;21.50;99.90;;;;;;5032048;28;20521;-71
2022/08/26 00:28:07;;;;;;;1999.90;999.90;;;21.40;99.90;;;;;;5031387;28;20466;-71
2022/08/26 00:30:34;;;;;;;1999.90;999.90;;;21.30;99.90;;;;;;5031309;28;20471;-72
2022/08/26 00:33:04;;;;;;;1999.90;999.90;;;21.20;99.90;;;;;;5031890;28;20867;-71
2022/08/26 00:35:31;;;;;;;1999.90;999.90;;;21.30;99.90;;;;;;5031705;28;20493;-72
2022/08/26 00:38:00;;;;;;;1999.90;999.90;;;21.30;99.90;;;;;;5031929;28;20892;-71
2022/08/26 00:40:30;;;;;;;1999.90;999.90;;;21.30;99.90;;;;;;5028586;28;20490;-71
2022/08/26 00:42:57;;;;;;;1999.90;999.90;;;21.30;99.90;;;;;;5030834;28;20524;-71
2022/08/26 00:45:24;;;;;;;1999.90;999.90;;;21.30;99.90;;;;;;5031633;28;20467;-71
2022/08/26 00:47:55;;;;;;;1999.90;999.90;;;21.30;99.90;;;;;;5031839;28;20447;-71
2022/08/26 00:50:26;;;;;;;1999.90;999.90;;;21.40;99.90;;;;;;5030317;28;20895;-72
2022/08/26 00:52:55;;;;;;;1999.90;999.90;;;21.50;99.90;;;;;;5031796;28;20506;-71
2022/08/26 00:55:28;;;;;;;1999.90;999.90;;;21.40;99.90;;;;;;5031092;28;20483;-71
2022/08/26 00:57:56;;;;;;;1999.90;999.90;;;21.20;99.90;;;;;;5032038;28;20489;-71
2022/08/26 01:00:26;;;;;;;1999.90;999.90;;;21.10;99.90;;;;;;5031591;28;20447;-72
2022/08/26 01:02:54;;;;;;;1999.90;999.90;;;21.00;99.90;;;;;;5030992;28;20466;-72
2022/08/26 01:05:22;;;;;;;1999.90;999.90;;;21.00;99.90;;;;;;5031166;28;20474;-72
2022/08/26 01:07:49;;;;;;;1999.90;999.90;;;21.00;99.90;;;;;;5031339;28;21018;-71
2022/08/26 01:10:18;;;;;;;1999.90;999.90;;;21.00;99.90;;;;;;5031668;28;20447;-71
2022/08/26 01:12:49;;;;;;;1999.90;999.90;;;21.00;99.90;;;;;;5031519;28;20459;-71
2022/08/26 01:15:20;;;;;;;1999.90;999.90;;;21.00;99.90;;;;;;5030285;28;20499;-71
2022/08/26 01:17:48;;;;;;;1999.90;999.90;;;21.00;99.90;;;;;;5031575;28;20447;-71
2022/08/26 01:20:23;;;;;;;1999.90;999.90;;;20.90;99.90;;;;;;5031411;28;20461;-71
2022/08/26 01:22:57;;;;;;;1999.90;999.90;;;20.90;99.90;;;;;;5031477;28;20431;-71
2022/08/26 01:25:26;;;;;;;1999.90;999.90;;;20.90;99.90;;;;;;5031439;28;20467;-71
2022/08/26 01:27:54;;;;;;;1999.90;999.90;;;20.90;99.90;;;;;;5029739;28;20459;-72
2022/08/26 01:30:21;;;;;;;1999.90;999.90;;;20.90;99.90;;;;;;5031440;28;20450;-71
2022/08/26 01:32:49;;;;;;;1999.90;999.90;;;20.80;99.90;;;;;;5034199;28;20446;-71
2022/08/26 01:35:16;;;;;;;1999.90;999.90;;;20.70;99.90;;;;;;5034903;28;20541;-71
2022/08/26 01:37:44;;;;;;;1999.90;999.90;;;20.70;99.90;;;;;;5035114;28;20489;-71
2022/08/26 01:40:19;;;;;;;1999.90;999.90;;;20.60;99.90;;;;;;5033957;28;20467;-71
2022/08/26 01:42:47;;;;;;;1999.90;999.90;;;20.60;99.90;;;;;;5034206;28;20478;-71
2022/08/26 01:45:18;;;;;;;1999.90;999.90;;;20.60;99.90;;;;;;5034778;28;20521;-71
2022/08/26 01:47:46;;;;;;;1999.90;999.90;;;20.60;99.90;;;;;;5034973;28;20867;-71
2022/08/26 01:50:16;;;;;;;1999.90;999.90;;;20.50;99.90;;;;;;5034413;28;20493;-70
2022/08/26 01:52:46;;;;;;;1999.90;999.90;;;20.50;99.90;;;;;;5034636;28;20888;-71
2022/08/26 01:55:16;;;;;;;1999.90;999.90;;;20.50;99.90;;;;;;5034474;28;20491;-72
2022/08/26 01:57:45;;;;;;;1999.90;999.90;;;20.50;99.90;;;;;;5035037;28;20427;-71
2022/08/26 02:00:13;;;;;;;1999.90;999.90;;;20.40;99.90;;;;;;5034870;28;20451;-71
2022/08/26 02:02:41;;;;;;;1999.90;999.90;;;20.40;99.90;;;;;;5033079;28;20470;-71
2022/08/26 02:05:10;;;;;;;1999.90;999.90;;;20.40;99.90;;;;;;5034387;28;20443;-70
2022/08/26 02:07:39;;;;;;;1999.90;999.90;;;20.40;99.90;;;;;;5034725;28;20454;-71
2022/08/26 02:10:07;;;;;;;1999.90;999.90;;;20.40;99.90;;;;;;5034952;28;20455;-72
2022/08/26 02:12:36;;;;;;;1999.90;999.90;;;20.50;99.90;;;;;;5033324;28;20521;-71
2022/08/26 02:15:08;;;;;;;1999.90;999.90;;;20.50;99.90;;;;;;5034162;28;20479;-71
2022/08/26 02:17:38;;;;;;;1999.90;999.90;;;20.50;99.90;;;;;;5034845;28;20431;-71
2022/08/26 02:20:07;;;;;;;1999.90;999.90;;;20.50;99.90;;;;;;5034317;28;20967;-71
2022/08/26 02:22:35;;;;;;;1999.90;999.90;;;20.40;99.90;;;;;;5034228;28;20563;-71
2022/08/26 02:25:17;;;;;;;1999.90;999.90;;;20.40;99.90;;;;;;5032415;28;20824;-71
2022/08/26 02:27:47;;;;;;;1999.90;999.90;;;20.40;99.90;;;;;;5028985;28;20443;-71
2022/08/26 02:30:17;;;;;;;1999.90;999.90;;;20.40;99.90;;;;;;5034104;28;20955;-72
2022/08/26 02:32:45;;;;;;;1999.90;999.90;;;20.50;99.90;;;;;;5034302;28;20447;-71
2022/08/26 02:35:14;;;;;;;1999.90;999.90;;;20.50;99.90;;;;;;5032388;28;20482;-71
2022/08/26 02:37:41;;;;;;;1999.90;999.90;;;20.50;99.90;;;;;;5033909;28;20876;-71
2022/08/26 02:40:09;;;;;;;1999.90;999.90;;;20.50;99.90;;;;;;5034090;28;20958;-71
2022/08/26 02:42:36;;;;;;;1999.90;999.90;;;20.50;99.90;;;;;;5033153;28;20451;-71
2022/08/26 02:45:05;;;;;;;1999.90;999.90;;;20.40;99.90;;;;;;5033050;28;20478;-71
2022/08/26 02:47:33;;;;;;;1999.90;999.90;;;20.30;99.90;;;;;;5033043;28;20459;-69
2022/08/26 02:50:00;;;;;;;1999.90;999.90;;;20.20;99.90;;;;;;5029264;28;20463;-68
2022/08/26 02:52:27;;;;;;;1999.90;999.90;;;20.10;99.90;;;;;;5026208;28;20642;-69
2022/08/26 02:54:53;;;;;;;1999.90;999.90;;;20.00;99.90;;;;;;5033565;28;20536;-68
2022/08/26 02:57:20;;;;;;;1999.90;999.90;;;19.90;99.90;;;;;;5033906;28;20509;-68
2022/08/26 02:59:47;;;;;;;1999.90;999.90;;;19.90;99.90;;;;;;5032936;28;20439;-68
2022/08/26 03:02:16;;;;;;;1999.90;999.90;;;19.90;99.90;;;;;;5033850;28;20873;-69
2022/08/26 03:04:43;;;;;;;1999.90;999.90;;;19.90;99.90;;;;;;5033504;28;20454;-68
2022/08/26 03:07:09;;;;;;;1999.90;999.90;;;19.90;99.90;;;;;;5033252;28;20545;-69
2022/08/26 03:09:36;;;;;;;1999.90;999.90;;;19.90;99.90;;;;;;5033858;28;20447;-68
2022/08/26 03:12:03;;;;;;;1999.90;999.90;;;19.80;99.90;;;;;;5032384;28;20474;-68
2022/08/26 03:14:30;;;;;;;1999.90;999.90;;;19.90;99.90;;;;;;5032869;28;20843;-69
2022/08/26 03:16:56;;;;;;;1999.90;999.90;;;19.80;99.90;;;;;;5033417;28;20877;-69
2022/08/26 03:19:25;;;;;;;1999.90;999.90;;;19.80;99.90;;;;;;5033304;28;20455;-68
2022/08/26 03:21:53;;;;;;;1999.90;999.90;;;19.80;99.90;;;;;;5033367;28;20459;-68
2022/08/26 03:24:20;;;;;;;1999.90;999.90;;;19.90;99.90;;;;;;5032205;28;20508;-68
2022/08/26 03:26:47;;;;;;;1999.90;999.90;;;20.00;99.90;;;;;;5031754;28;20940;-68
2022/08/26 03:31:59;;;;;;;1999.90;999.90;;;20.00;99.90;;;;;;5033189;28;20530;-68
2022/08/26 03:34:27;;;;;;;1999.90;999.90;;;20.00;99.90;;;;;;5032909;28;20462;-66
2022/08/26 03:36:54;;;;;;;1999.90;999.90;;;19.90;99.90;;;;;;5031430;28;20487;-68
2022/08/26 03:39:20;;;;;;;1999.90;999.90;;;20.00;99.90;;;;;;5032776;28;20454;-68
2022/08/26 03:41:47;;;;;;;1999.90;999.90;;;20.00;99.90;;;;;;5032724;28;20443;-67
2022/08/26 03:44:14;;;;;;;1999.90;999.90;;;20.10;99.90;;;;;;5033031;28;20447;-71
2022/08/26 03:46:41;;;;;;;1999.90;999.90;;;20.10;99.90;;;;;;5031234;28;20483;-71
2022/08/26 03:49:08;;;;;;;1999.90;999.90;;;20.00;99.90;;;;;;5032522;28;20447;-71
2022/08/26 03:51:39;;;;;;;1999.90;999.90;;;20.00;99.90;;;;;;5033012;28;20486;-69
2022/08/26 03:54:07;;;;;;;1999.90;999.90;;;20.10;99.90;;;;;;5032202;28;20533;-70
2022/08/26 03:56:34;;;;;;;1999.90;999.90;;;20.20;99.90;;;;;;5030518;28;20545;-71
2022/08/26 03:59:01;;;;;;;1999.90;999.90;;;20.10;99.90;;;;;;5032527;28;20455;-71
2022/08/26 04:01:28;;;;;;;1999.90;999.90;;;20.10;99.90;;;;;;5032384;28;20509;-69
2022/08/26 04:03:58;;;;;;;1999.90;999.90;;;20.00;99.90;;;;;;5032740;28;20641;-69
2022/08/26 04:06:26;;;;;;;1999.90;999.90;;;20.00;99.90;;;;;;5030501;28;20591;-70
2022/08/26 04:08:57;;;;;;;1999.90;999.90;;;20.00;99.90;;;;;;5030997;28;20467;-68
2022/08/26 04:11:30;;;;;;;1999.90;999.90;;;19.90;99.90;;;;;;5032395;28;20447;-69
2022/08/26 04:13:58;;;;;;;1999.90;999.90;;;19.90;99.90;;;;;;5032375;28;20455;-67
2022/08/26 04:16:25;;;;;;;1999.90;999.90;;;19.80;99.90;;;;;;5031775;28;21068;-66
2022/08/26 04:18:52;;;;;;;1999.90;999.90;;;19.90;99.90;;;;;;5031235;28;20447;-67
2022/08/26 04:21:19;;;;;;;1999.90;999.90;;;19.90;99.90;;;;;;5031445;28;21002;-68
2022/08/26 04:23:45;;;;;;;1999.90;999.90;;;19.80;99.90;;;;;;5032215;28;20474;-69
2022/08/26 04:26:13;;;;;;;1999.90;999.90;;;19.60;99.90;;;;;;5031782;28;20594;-69
2022/08/26 04:28:40;;;;;;;1999.90;999.90;;;19.80;99.90;;;;;;5031050;28;20558;-68
2022/08/26 04:31:10;;;;;;;1999.90;999.90;;;19.90;99.90;;;;;;5031861;28;20443;-67
2022/08/26 04:33:37;;;;;;;1999.90;999.90;;;20.00;99.90;;;;;;5032236;28;20431;-68
2022/08/26 04:36:05;;;;;;;1999.90;999.90;;;20.10;99.90;;;;;;5031428;28;20533;-67
2022/08/26 04:38:33;;;;;;;1999.90;999.90;;;20.00;99.90;;;;;;5030180;28;20473;-67
2022/08/26 04:41:00;;;;;;;1999.90;999.90;;;19.90;99.90;;;;;;5031592;28;20451;-67
2022/08/26 04:43:30;;;;;;;1999.90;999.90;;;19.80;99.90;;;;;;5031566;28;20451;-68
2022/08/26 04:45:58;;;;;;;1999.90;999.90;;;19.90;99.90;;;;;;5031212;28;20529;-67
2022/08/26 04:48:26;;;;;;;1999.90;999.90;;;20.10;99.90;;;;;;5031897;28;20450;-67
2022/08/26 04:50:53;;;;;;;1999.90;999.90;;;20.20;99.90;;;;;;5030394;28;20491;-67
2022/08/26 04:53:19;;;;;;;1999.90;999.90;;;20.20;99.90;;;;;;5031565;28;20456;-71
2022/08/26 04:55:46;;;;;;;1999.90;999.90;;;20.30;99.90;;;;;;5031081;28;20540;-71
2022/08/26 04:58:14;;;;;;;1999.90;999.90;;;20.40;99.90;;;;;;5031611;28;20998;-71
2022/08/26 05:00:43;;;;;;;1999.90;999.90;;;20.40;99.90;;;;;;5030133;28;20447;-71
2022/08/26 05:03:10;;;;;;;1999.90;999.90;;;20.50;99.90;;;;;;5030263;28;20540;-70
2022/08/26 05:05:38;;;;;;;1999.90;999.90;;;20.50;99.90;;;;;;5030370;28;21003;-70
2022/08/26 05:08:05;;;;;;;1999.90;999.90;;;20.50;99.90;;;;;;5031188;28;20618;-71
2022/08/26 05:10:33;;;;;;;1999.90;999.90;;;20.60;99.90;;;;;;5029503;28;20467;-71
2022/08/26 05:13:02;;;;;;;1999.90;999.90;;;20.60;99.90;;;;;;5031355;28;20450;-71
2022/08/26 05:15:29;;;;;;;1999.90;999.90;;;20.70;99.90;;;;;;5031247;28;20487;-71
2022/08/26 05:17:57;;;;;;;1999.90;999.90;;;20.80;99.90;;;;;;5031544;28;20459;-72
2022/08/26 05:20:24;;;;;;;1999.90;999.90;;;20.90;99.90;;;;;;5030511;28;20499;-71
2022/08/26 05:22:51;;;;;;;1999.90;999.90;;;20.90;99.90;;;;;;5030886;28;20851;-71
2022/08/26 05:25:18;;;;;;;1999.90;999.90;;;20.80;99.90;;;;;;5031133;28;20479;-70
2022/08/26 05:27:45;;;;;;;1999.90;999.90;;;20.90;99.90;;;;;;5031679;28;20451;-70
2022/08/26 05:30:12;;;;;;;1999.90;999.90;;;21.00;99.90;;;;;;5031403;28;20520;-71
2022/08/26 05:32:39;;;;;;;1999.90;999.90;;;21.00;99.90;;;;;;5029541;28;20521;-72
2022/08/26 05:35:07;;;;;;;1999.90;999.90;;;21.10;99.90;;;;;;5030997;28;20451;-69
2022/08/26 05:37:34;;;;;;;1999.90;999.90;;;21.10;99.90;;;;;;5031128;28;20501;-71
2022/08/26 05:40:03;;;;;;;1999.90;999.90;;;21.10;99.90;;;;;;5031322;28;20447;-69
2022/08/26 05:42:29;;;;;;;1999.90;999.90;;;21.10;99.90;;;;;;5029933;28;20486;-71
2022/08/26 05:44:56;;;;;;;1999.90;999.90;;;21.20;99.90;;;;;;5031060;28;20469;-69
2022/08/26 05:47:23;;;;;;;1999.90;999.90;;;21.30;99.90;;;;;;5031258;28;20489;-71
2022/08/26 05:49:50;;;;;;;1999.90;999.90;;;21.40;99.90;;;;;;5031153;28;20446;-71
2022/08/26 05:52:18;;;;;;;1999.90;999.90;;;21.30;99.90;;;;;;5031286;28;20469;-71
2022/08/26 05:54:45;;;;;;;1999.90;999.90;;;21.30;99.90;;;;;;5029035;28;20467;-71
2022/08/26 05:57:12;;;;;;;1999.90;999.90;;;21.30;99.90;;;;;;5030737;28;20894;-70
2022/08/26 05:59:39;;;;;;;1999.90;999.90;;;21.20;99.90;;;;;;5030734;28;20843;-69
2022/08/26 06:02:07;;;;;;;1999.90;999.90;;;21.20;99.90;;;;;;5031269;28;20501;-71
2022/08/26 06:04:33;;;;;;;1999.90;999.90;;;21.40;99.90;;;;;;5028592;28;20525;-71
2022/08/26 06:07:00;;;;;;;1999.90;999.90;;;21.60;99.90;;;;;;5045368;22;20530;-70
2022/08/26 06:09:28;;;;;;;1999.90;999.90;;;21.70;99.90;;;;;;5030579;28;20471;-69
2022/08/26 06:11:57;;;;;;;1999.90;999.90;;;21.90;99.90;;;;;;5031980;28;20459;-70
2022/08/26 06:14:24;;;;;;;1999.90;999.90;;;21.90;99.90;;;;;;5031722;28;20451;-70
2022/08/26 06:16:51;;;;;;;1999.90;999.90;;;22.10;99.90;;;;;;5030486;28;20569;-70
2022/08/26 06:19:18;;;;;;;1999.90;999.90;;;22.20;99.90;;;;;;5034695;28;20902;-69
2022/08/26 06:21:47;;;;;;;1999.90;999.90;;;22.30;99.90;;;;;;5034892;28;20479;-70
2022/08/26 06:27:02;;;;;;;1999.90;999.90;;;22.50;99.90;;;;;;5033207;28;21012;-69
2022/08/26 06:29:30;;;;;;;1999.90;999.90;;;22.70;99.90;;;;;;5027401;28;20455;-70
2022/08/26 06:31:57;;;;;;;1999.90;999.90;;;22.80;99.90;;;;;;5035227;28;20451;-70
2022/08/26 06:34:25;;;;;;;1999.90;999.90;;;23.00;99.90;;;;;;5034834;28;20959;-68
2022/08/26 06:36:52;;;;;;;1999.90;999.90;;;23.10;99.90;;;;;;5033906;28;20498;-70
2022/08/26 06:39:19;;;;;;;1999.90;999.90;;;23.20;99.90;;;;;;5034348;28;20806;-69
2022/08/26 06:41:46;;;;;;;1999.90;999.90;;;23.30;99.90;;;;;;5035054;28;20450;-69
2022/08/26 06:44:15;;;;;;;1999.90;999.90;;;23.50;99.90;;;;;;5034866;28;20451;-70
2022/08/26 06:46:42;;;;;;;1999.90;999.90;;;23.70;99.90;;;;;;5033037;28;20488;-70
2022/08/26 06:49:10;;;;;;;1999.90;999.90;;;23.80;99.90;;;;;;5034537;28;20505;-70
2022/08/26 06:51:38;;;;;;;1999.90;999.90;;;24.00;99.90;;;;;;5034649;28;21009;-70
2022/08/26 06:54:07;;;;;;;1999.90;999.90;;;24.10;99.90;;;;;;5034176;28;20502;-70
2022/08/26 06:56:35;;;;;;;1999.90;999.90;;;24.30;99.90;;;;;;5032972;28;20498;-71
2022/08/26 06:59:03;;;;;;;1999.90;999.90;;;24.60;99.90;;;;;;5033652;28;20471;-70
2022/08/26 07:01:33;;;;;;;1999.90;999.90;;;24.80;99.90;;;;;;5030270;28;20471;-71
2022/08/26 07:04:03;;;;;;;1999.90;999.90;;;25.10;99.90;;;;;;5033758;28;20447;-69
2022/08/26 07:06:30;;;;;;;1999.90;999.90;;;25.20;99.90;;;;;;5033616;28;20482;-70
2022/08/26 07:09:02;;;;;;;1999.90;999.90;;;25.50;99.90;;;;;;5033872;28;20474;-69
2022/08/26 07:11:29;;;;;;;1999.90;999.90;;;25.80;99.90;;;;;;5034527;28;20463;-70
2022/08/26 07:13:57;;;;;;;1999.90;999.90;;;25.90;99.90;;;;;;5032474;28;20459;-70
2022/08/26 07:16:25;;;;;;;1999.90;999.90;;;26.00;99.90;;;;;;5032132;28;20520;-70
2022/08/26 07:18:54;;;;;;;1999.90;999.90;;;26.20;99.90;;;;;;5034396;28;20452;-70
2022/08/26 07:21:23;;;;;;;1999.90;999.90;;;26.20;99.90;;;;;;5033257;28;20440;-70
2022/08/26 07:23:50;;;;;;;1999.90;999.90;;;26.30;99.90;;;;;;5034044;28;20459;-70
2022/08/26 07:26:19;;;;;;;1999.90;999.90;;;26.20;99.90;;;;;;5033082;28;20536;-70
2022/08/26 07:28:49;;;;;;;1999.90;999.90;;;26.00;99.90;;;;;;5033369;28;20966;-70
2022/08/26 07:31:16;;;;;;;1999.90;999.90;;;25.90;99.90;;;;;;5033653;28;20451;-70
2022/08/26 07:33:44;;;;;;;1999.90;999.90;;;25.80;99.90;;;;;;5034056;28;20485;-70
2022/08/26 07:36:13;;;;;;;1999.90;999.90;;;25.80;99.90;;;;;;5032428;28;20491;-70
2022/08/26 07:38:41;;;;;;;1999.90;999.90;;;25.80;99.90;;;;;;5033675;28;20458;-70
2022/08/26 07:41:08;;;;;;;1999.90;999.90;;;25.70;99.90;;;;;;5033860;28;20529;-70
2022/08/26 07:43:35;;;;;;;1999.90;999.90;;;25.70;99.90;;;;;;5033887;28;20452;-70
2022/08/26 07:46:03;;;;;;;1999.90;999.90;;;25.80;99.90;;;;;;5031931;28;20467;-70
2022/08/26 07:48:30;;;;;;;1999.90;999.90;;;26.00;99.90;;;;;;5033551;28;20447;-69
2022/08/26 07:50:57;;;;;;;1999.90;999.90;;;25.90;99.90;;;;;;5033441;28;20490;-70
2022/08/26 07:53:25;;;;;;;1999.90;999.90;;;25.80;99.90;;;;;;5033617;28;20590;-70
2022/08/26 07:55:52;;;;;;;1999.90;999.90;;;25.80;99.90;;;;;;5031932;28;20621;-70
2022/08/26 07:58:19;;;;;;;1999.90;999.90;;;25.90;99.90;;;;;;5033030;28;20455;-70
2022/08/26 08:00:47;;;;;;;1999.90;999.90;;;26.00;99.90;;;;;;5032846;28;20486;-70
2022/08/26 08:03:14;;;;;;;1999.90;999.90;;;26.10;99.90;;;;;;5033666;28;20443;-69
2022/08/26 08:05:42;;;;;;;1999.90;999.90;;;26.20;99.90;;;;;;5032061;28;20483;-70
2022/08/26 08:08:09;;;;;;;1999.90;999.90;;;26.10;99.90;;;;;;5033408;28;20493;-70
2022/08/26 08:10:38;;;;;;;1999.90;999.90;;;26.20;99.90;;;;;;5032958;28;20453;-70
2022/08/26 08:13:06;;;;;;;1999.90;999.90;;;26.50;99.90;;;;;;5032969;28;20932;-71
2022/08/26 08:15:34;;;;;;;1999.90;999.90;;;26.60;99.90;;;;;;5031550;28;20470;-70
2022/08/26 08:18:01;;;;;;;1999.90;999.90;;;26.90;99.90;;;;;;5032737;28;20509;-70
2022/08/26 08:20:28;;;;;;;1999.90;999.90;;;26.80;99.90;;;;;;5032703;28;20997;-70
2022/08/26 08:22:56;;;;;;;1999.90;999.90;;;26.80;99.90;;;;;;5032225;28;20872;-70
2022/08/26 08:25:23;;;;;;;1999.90;999.90;;;26.70;99.90;;;;;;5030070;28;20471;-70
2022/08/26 08:27:51;;;;;;;1999.90;999.90;;;26.70;99.90;;;;;;5031725;28;20467;-70
2022/08/26 08:30:20;;;;;;;1999.90;999.90;;;26.80;99.90;;;;;;5032597;28;21052;-70
2022/08/26 08:32:47;;;;;;;1999.90;999.90;;;27.00;99.90;;;;;;5032645;28;20876;-70
2022/08/26 08:35:17;;;;;;;1999.90;999.90;;;27.10;99.90;;;;;;5030266;28;20529;-70
2022/08/26 08:37:44;;;;;;;1999.90;999.90;;;27.20;99.90;;;;;;5032607;28;20552;-71
2022/08/26 08:40:16;;;;;;;1999.90;999.90;;;27.20;99.90;;;;;;5032810;28;20447;-71
2022/08/26 08:42:46;;;;;;;1999.90;999.90;;;27.10;99.90;;;;;;5032187;28;20920;-71
2022/08/26 08:45:19;;;;;;;1999.90;999.90;;;27.10;99.90;;;;;;5031229;28;20471;-70
2022/08/26 08:47:50;;;;;;;1999.90;999.90;;;26.90;99.90;;;;;;5032391;28;20443;-70
2022/08/26 08:50:22;;;;;;;1999.90;999.90;;;26.70;99.90;;;;;;5032002;28;20447;-70
2022/08/26 08:52:54;;;;;;;1999.90;999.90;;;26.70;99.90;;;;;;5032720;28;20478;-70
2022/08/26 08:55:22;;;;;;;1999.90;999.90;;;26.90;99.90;;;;;;5031476;28;20524;-70
2022/08/26 08:58:01;;;;;;;1999.90;999.90;;;27.10;99.90;;;;;;5032307;28;20542;-70
2022/08/26 09:00:34;;;;;;;1999.90;999.90;;;27.10;99.90;;;;;;5031918;28;20874;-70
2022/08/26 09:03:09;;;;;;;1999.90;999.90;;;27.00;99.90;;;;;;5032435;28;20509;-71
2022/08/26 09:05:43;;;;;;;1999.90;999.90;;;27.10;99.90;;;;;;5029990;28;20603;-73
2022/08/26 09:08:15;;;;;;;1999.90;999.90;;;27.10;99.90;;;;;;5031505;28;20509;-71
2022/08/26 09:10:45;;;;;;;1999.90;999.90;;;27.20;99.90;;;;;;5032144;28;20447;-70
2022/08/26 09:13:14;;;;;;;1999.90;999.90;;;27.30;99.90;;;;;;5032158;28;20443;-70
2022/08/26 09:15:53;;;;;;;1999.90;999.90;;;27.20;99.90;;;;;;5030518;28;20518;-70
2022/08/26 09:18:31;;;;;;;1999.90;999.90;;;27.20;99.90;;;;;;5032043;28;20478;-70
2022/08/26 09:21:02;;;;;;;1999.90;999.90;;;27.00;99.90;;;;;;5031299;28;20447;-70
2022/08/26 09:23:29;;;;;;;1999.90;999.90;;;27.00;99.90;;;;;;5032239;28;20455;-71
2022/08/26 09:25:58;;;;;;;1999.90;999.90;;;27.10;99.90;;;;;;5028151;28;21006;-71
2022/08/26 09:28:27;;;;;;;1999.90;999.90;;;27.20;99.90;;;;;;5028438;28;20455;-70
2022/08/26 09:31:11;;;;;;;1999.90;999.90;;;27.40;99.90;;;;;;5031083;28;20463;-70
2022/08/26 09:33:40;;;;;;;1999.90;999.90;;;27.50;99.90;;;;;;5025887;28;20439;-70
2022/08/26 09:36:17;;;;;;;1999.90;999.90;;;27.40;99.90;;;;;;5030254;28;20702;-70
2022/08/26 09:38:45;;;;;;;1999.90;999.90;;;27.50;99.90;;;;;;5032015;28;20479;-70
2022/08/26 09:41:23;;;;;;;1999.90;999.90;;;27.50;99.90;;;;;;5032085;28;20501;-71
2022/08/26 09:44:13;;;;;;;1999.90;999.90;;;27.70;99.90;;;;;;5031744;28;20567;-70
2022/08/26 09:46:45;;;;;;;1999.90;999.90;;;27.80;99.90;;;;;;5030526;28;20487;-72
2022/08/26 09:49:27;;;;;;;1999.90;999.90;;;28.00;99.90;;;;;;5031793;28;20550;-71
2022/08/26 09:52:10;;;;;;;1999.90;999.90;;;27.80;99.90;;;;;;5031946;28;20447;-70
2022/08/26 09:54:37;;;;;;;1999.90;999.90;;;27.80;99.90;;;;;;5034253;28;20459;-70
2022/08/26 09:57:14;;;;;;;1999.90;999.90;;;27.90;99.90;;;;;;5035405;28;20633;-70
2022/08/26 09:59:41;;;;;;;1999.90;999.90;;;27.70;99.90;;;;;;5035918;28;20438;-71
2022/08/26 10:02:42;;;;;;;1999.90;999.90;;;27.80;99.90;;;;;;5035432;28;20447;-70
2022/08/26 10:05:16;;;;;;;1999.90;999.90;;;28.00;99.90;;;;;;5034112;28;20486;-70
2022/08/26 10:07:45;;;;;;;1999.90;999.90;;;28.30;99.90;;;;;;5035026;28;20451;-70
2022/08/26 10:10:23;;;;;;;1999.90;999.90;;;28.30;99.90;;;;;;5035262;28;20873;-70
2022/08/26 10:13:03;;;;;;;1999.90;999.90;;;28.40;99.90;;;;;;5035759;28;20862;-70
2022/08/26 10:15:38;;;;;;;1999.90;999.90;;;28.40;99.90;;;;;;5034149;28;20467;-70
2022/08/26 10:18:12;;;;;;;1999.90;999.90;;;28.20;99.90;;;;;;5035037;28;20483;-70
2022/08/26 10:20:57;;;;;;;1999.90;999.90;;;27.90;99.90;;;;;;5035322;28;20864;-70
2022/08/26 10:23:28;;;;;;;1999.90;999.90;;;27.70;99.90;;;;;;5036446;28;20505;-70
2022/08/26 10:25:57;;;;;;;1999.90;999.90;;;27.60;99.90;;;;;;5035898;28;20467;-71
2022/08/26 10:28:32;;;;;;;1999.90;999.90;;;27.60;99.90;;;;;;5034675;28;20493;-71
2022/08/26 10:31:04;;;;;;;1999.90;999.90;;;27.50;99.90;;;;;;5035531;28;20458;-70
2022/08/26 10:33:32;;;;;;;1999.90;999.90;;;27.40;99.90;;;;;;5015159;28;20479;-70
2022/08/26 10:36:02;;;;;;;1999.90;999.90;;;27.40;99.90;;;;;;5014869;28;20468;-70
2022/08/26 10:38:34;;;;;;;1999.90;999.90;;;27.30;99.90;;;;;;5015190;28;20515;-70
2022/08/26 10:41:05;;;;;;;1999.90;999.90;;;27.20;99.90;;;;;;5031622;28;21028;-69
2022/08/26 10:43:37;;;;;;;1999.90;999.90;;;27.20;99.90;;;;;;5035136;28;20443;-70
2022/08/26 10:46:08;;;;;;;1999.90;999.90;;;27.30;99.90;;;;;;5034092;28;20531;-71
2022/08/26 10:48:45;;;;;;;1999.90;999.90;;;27.30;99.90;;;;;;5034993;28;20427;-70
2022/08/26 10:51:14;;;;;;;1999.90;999.90;;;27.50;99.90;;;;;;5034826;28;20446;-70
2022/08/26 10:53:50;;;;;;;1999.90;999.90;;;27.60;99.90;;;;;;5033829;28;20454;-71
2022/08/26 10:56:29;;;;;;;1999.90;999.90;;;27.60;99.90;;;;;;5034198;28;20470;-70
2022/08/26 10:59:06;;;;;;;1999.90;999.90;;;27.60;99.90;;;;;;5034674;28;20508;-71
2022/08/26 11:01:44;;;;;;;1999.90;999.90;;;27.70;99.90;;;;;;5034616;28;20431;-70
2022/08/26 11:04:37;;;;;;;1999.90;999.90;;;27.70;99.90;;;;;;5032564;28;20517;-70
2022/08/26 11:07:36;;;;;;;1999.90;999.90;;;27.80;99.90;;;;;;5031965;28;20541;-70
2022/08/26 11:10:09;;;;;;;1999.90;999.90;;;27.70;99.90;;;;;;5034429;28;20455;-71
2022/08/26 11:12:58;;;;;;;1999.90;999.90;;;27.60;99.90;;;;;;5034540;28;20447;-70
2022/08/26 11:16:10;;;;;;;1999.90;999.90;;;27.80;99.90;;;;;;5030179;28;20954;-70
2022/08/26 11:18:45;;;;;;;1999.90;999.90;;;27.90;99.90;;;;;;5027450;28;20482;-70
2022/08/26 11:21:51;;;;;;;1999.90;999.90;;;27.90;99.90;;;;;;5031680;28;20536;-70
2022/08/26 11:25:00;;;;;;;1999.90;999.90;;;28.00;99.90;;;;;;5033882;28;20450;-69
2022/08/26 11:27:53;;;;;;;1999.90;999.90;;;27.70;99.90;;;;;;5013839;28;20475;-74
2022/08/26 11:30:49;;;;;;;1999.90;999.90;;;27.70;99.90;;;;;;5023499;28;20459;-71
2022/08/26 11:33:58;;;;;;;1999.90;999.90;;;27.50;99.90;;;;;;5032237;28;20530;-72
2022/08/26 11:36:41;;;;;;;1999.90;999.90;;;27.70;99.90;;;;;;5033673;28;20474;-70
2022/08/26 11:39:19;;;;;;;1999.90;999.90;;;27.80;99.90;;;;;;5033629;28;20539;-69
2022/08/26 11:41:49;;;;;;;1999.90;999.90;;;28.00;99.90;;;;;;5033405;28;20856;-71
2022/08/26 11:44:21;;;;;;;1999.90;999.90;;;28.10;99.90;;;;;;5032195;28;20817;-70
2022/08/26 11:46:57;;;;;;;1999.90;999.90;;;28.20;99.90;;;;;;5033274;28;20983;-70
2022/08/26 11:49:24;;;;;;;1999.90;999.90;;;28.20;99.90;;;;;;5032008;28;20446;-70
2022/08/26 11:51:51;;;;;;;1999.90;999.90;;;28.40;99.90;;;;;;5033413;28;20435;-71
2022/08/26 11:54:22;;;;;;;1999.90;999.90;;;28.40;99.90;;;;;;5031559;28;20451;-69
2022/08/26 11:56:51;;;;;;;1999.90;999.90;;;28.70;99.90;;;;;;5031803;28;20501;-71
2022/08/26 11:59:32;;;;;;;1999.90;999.90;;;29.00;99.90;;;;;;5033065;28;20435;-71
2022/08/26 12:02:00;;;;;;;1999.90;999.90;;;29.10;99.90;;;;;;5025509;28;20448;-71
2022/08/26 12:04:30;;;;;;;1999.90;999.90;;;29.50;99.90;;;;;;5013200;28;20950;-71
2022/08/26 12:06:59;;;;;;;1999.90;999.90;;;29.50;99.90;;;;;;5047654;22;20485;-72
2022/08/26 12:09:29;;;;;;;1999.90;999.90;;;29.90;99.90;;;;;;5062755;28;20442;-71
2022/08/26 12:12:10;;;;;;;1999.90;999.90;;;29.90;99.90;;;;;;5052332;28;20434;-72
2022/08/26 12:14:37;;;;;;;1999.90;999.90;;;30.20;99.70;;;;;;5051950;28;20770;-72
2022/08/26 12:17:09;;;;;;;1999.90;999.90;;;30.10;99.70;;;;;;5051694;28;20628;-70
2022/08/26 12:19:37;;;;;;;1999.90;999.90;;;30.00;99.90;;;;;;5061320;28;20469;-72